»·PEaware :: N5491J KLAX-KLAS

N5491J :: KLAX-KLAS

FLIGHT INFORMATION

Flight Status: Arrived
Operator: Privately registered:
United States
More flights under this callsign
Pilot: David L. (16466)
Aircraft: Unknown
(SF50)
More flights by this aircraft type
Origin: KLAX Los Angeles Intl
United States
Destination: KLAS McCarran Intl
United States
More flights between these airports :: More routes between these airports
Route: ORCKA3 MISEN KEPEC6
File this flight plan on PilotEdge
Remarks:
Altitude:
(Current/Filed)
25,000ft
Speed:
(Current/Filed)
300kts
Departed: 29-Sep-18 04:07 PM
Arrived: 29-Sep-18 05:10 PM
Distance/Time
Traveled:
206nm/1:02
Distance/Time
To Go:
Arrived

Flight Plot

Page will automatically refresh every two minutes.

Flight plan parsing failed; only flown route is shown


Map Options




Map Legend


Flown Route
Filed Route
Departure Airport
Arrival Airport
Navaid (VOR, NDB)
Fix

Horizontal Profiles

Position Reports

Time Latitude Longitude Heading Altitude Ground
Speed
29-Sep-18 15:44 33.932729 -118.399126 21 112ft 0kts
29-Sep-18 15:45 33.932729 -118.399126 21 112ft 0kts
29-Sep-18 15:46 33.932729 -118.399126 21 112ft 0kts
29-Sep-18 15:47 33.932729 -118.399126 21 112ft 0kts
29-Sep-18 15:48 33.932729 -118.399126 21 112ft 0kts
29-Sep-18 15:49 33.932729 -118.399126 21 112ft 0kts
29-Sep-18 15:50 33.932729 -118.399126 21 112ft 0kts
29-Sep-18 15:51 33.932729 -118.399126 21 112ft 0kts
29-Sep-18 15:52 33.932729 -118.399126 21 112ft 0kts
29-Sep-18 15:53 33.932729 -118.399126 21 112ft 0kts
29-Sep-18 15:54 33.932729 -118.399126 21 112ft 0kts
29-Sep-18 15:55 33.932729 -118.399126 21 112ft 0kts
29-Sep-18 15:56 33.932729 -118.399126 21 112ft 0kts
29-Sep-18 15:57 33.932729 -118.399126 21 112ft 0kts
29-Sep-18 15:58 33.932729 -118.399126 21 112ft 0kts
29-Sep-18 15:59 33.932729 -118.399126 21 112ft 0kts
29-Sep-18 16:00 33.932729 -118.399126 21 112ft 0kts
29-Sep-18 16:01 33.932729 -118.399126 21 112ft 0kts
29-Sep-18 16:02 33.932729 -118.399126 21 112ft 0kts
29-Sep-18 16:03 33.933525 -118.398715 33 110ft 12kts
29-Sep-18 16:04 33.934689 -118.395001 40 106ft 15kts
29-Sep-18 16:05 33.935538 -118.388559 81 99ft 24kts
29-Sep-18 16:06 33.936574 -118.382773 351 96ft 0kts
29-Sep-18 16:07 33.936574 -118.382773 351 96ft 0kts
29-Sep-18 16:08 33.936577 -118.382773 351 96ft 0kts
29-Sep-18 16:09 33.936806 -118.387764 259 100ft 78kts
29-Sep-18 16:10 33.933074 -118.430017 263 1996ft 141kts
29-Sep-18 16:11 33.928864 -118.476283 259 3272ft 140kts
29-Sep-18 16:12 33.924749 -118.520616 263 4775ft 118kts
29-Sep-18 16:13 33.912779 -118.565538 201 5037ft 188kts
29-Sep-18 16:14 33.896369 -118.513030 64 6269ft 252kts
29-Sep-18 16:15 33.930170 -118.438205 56 8377ft 259kts
29-Sep-18 16:16 33.970632 -118.366426 57 10477ft 259kts
29-Sep-18 16:17 34.010846 -118.295396 57 12560ft 255kts
29-Sep-18 16:18 34.050319 -118.225754 57 14506ft 253kts
29-Sep-18 16:19 34.090180 -118.155319 57 16215ft 256kts
29-Sep-18 16:20 34.129760 -118.085232 57 17872ft 255kts
29-Sep-18 16:21 34.169573 -118.014581 57 19386ft 256kts
29-Sep-18 16:22 34.210683 -117.941467 57 20477ft 273kts
29-Sep-18 16:23 34.254230 -117.863883 57 21487ft 285kts
29-Sep-18 16:24 34.291702 -117.796982 57 22324ft 291kts
29-Sep-18 16:25 34.344980 -117.701650 57 23492ft 296kts
29-Sep-18 16:26 34.393068 -117.620662 55 24494ft 298kts
29-Sep-18 16:27 34.442499 -117.537783 55 24984ft 318kts
29-Sep-18 16:28 34.488298 -117.460844 55 24982ft 339kts
29-Sep-18 16:29 34.513604 -117.418276 55 24981ft 347kts
29-Sep-18 16:30 34.580158 -117.306052 55 24973ft 358kts
29-Sep-18 16:31 34.628682 -117.224000 55 24973ft 361kts
29-Sep-18 16:32 34.697153 -117.107953 55 24973ft 364kts
29-Sep-18 16:33 34.746159 -117.024565 55 24944ft 365kts
29-Sep-18 16:34 34.805052 -116.924160 55 24910ft 365kts
29-Sep-18 16:35 34.863783 -116.823768 55 24902ft 364kts
29-Sep-18 16:36 34.922075 -116.723626 56 24903ft 363kts
29-Sep-18 16:37 34.979538 -116.622091 56 24905ft 364kts
29-Sep-18 16:38 35.036934 -116.520281 57 24906ft 365kts
29-Sep-18 16:39 35.094334 -116.418138 57 24922ft 366kts
29-Sep-18 16:40 35.163201 -116.327739 46 24685ft 373kts
29-Sep-18 16:41 35.236224 -116.236186 46 23614ft 379kts
29-Sep-18 16:42 35.310049 -116.143353 46 22110ft 381kts
29-Sep-18 16:43 35.382984 -116.051401 46 20264ft 363kts
29-Sep-18 16:44 35.449743 -115.967002 46 17625ft 337kts
29-Sep-18 16:45 35.513472 -115.886231 47 14627ft 325kts
29-Sep-18 16:46 35.574076 -115.809241 47 13039ft 303kts
29-Sep-18 16:47 35.632524 -115.734811 47 13033ft 305kts
29-Sep-18 16:48 35.692422 -115.658370 47 13031ft 319kts
29-Sep-18 16:49 35.759535 -115.580905 20 13016ft 344kts
29-Sep-18 16:50 35.854708 -115.570062 359 13049ft 348kts
29-Sep-18 16:51 35.951800 -115.560517 22 12893ft 358kts
29-Sep-18 16:52 36.001237 -115.470010 74 11357ft 297kts
29-Sep-18 16:53 36.027872 -115.385486 71 11007ft 236kts
29-Sep-18 16:54 36.026052 -115.305851 100 9674ft 244kts
29-Sep-18 16:55 36.020141 -115.223989 101 9033ft 221kts
29-Sep-18 16:56 36.014811 -115.147605 100 8168ft 228kts
29-Sep-18 16:57 36.009918 -115.073940 100 8028ft 201kts
29-Sep-18 16:58 36.006038 -115.009061 101 8024ft 184kts
29-Sep-18 16:59 36.002298 -114.946405 102 8025ft 180kts
29-Sep-18 17:00 35.998512 -114.883889 102 8028ft 188kts
29-Sep-18 17:01 35.994201 -114.814745 101 7332ft 222kts
29-Sep-18 17:02 35.989180 -114.738203 101 5874ft 224kts
29-Sep-18 17:03 36.020114 -114.688805 332 4909ft 223kts
29-Sep-18 17:04 36.049233 -114.741721 290 4909ft 171kts
29-Sep-18 17:05 36.072357 -114.792163 284 4917ft 166kts
29-Sep-18 17:06 36.073442 -114.844090 262 4926ft 153kts
29-Sep-18 17:07 36.073466 -114.898981 260 4917ft 163kts
29-Sep-18 17:08 36.073640 -114.956503 264 4733ft 178kts
29-Sep-18 17:09 36.073586 -115.016458 258 3813ft 155kts
29-Sep-18 17:10 36.074325 -115.063666 257 3077ft 131kts
29-Sep-18 17:11 36.074255 -115.108085 262 2383ft 128kts
29-Sep-18 17:12 36.072658 -115.134846 310 2068ft 16kts
29-Sep-18 17:13 36.073713 -115.142601 274 2089ft 24kts
29-Sep-18 17:14 36.074627 -115.145678 296 2099ft 0kts
29-Sep-18 17:15 36.076405 -115.146532 1 2100ft 20kts
29-Sep-18 17:16 36.078247 -115.147580 215 2099ft 5kts
29-Sep-18 17:17 36.078044 -115.152974 268 2120ft 15kts
29-Sep-18 17:18 36.078029 -115.155557 271 2130ft 0kts
29-Sep-18 17:19 36.078029 -115.159816 269 2144ft 18kts
29-Sep-18 17:20 36.078024 -115.166421 270 2166ft 19kts
29-Sep-18 17:21 36.078994 -115.171500 1 2177ft 0kts
29-Sep-18 17:22 36.074050 -115.070309 256 3013ft 126kts
29-Sep-18 17:23 36.074100 -115.114374 257 2404ft 109kts
29-Sep-18 17:24 36.073225 -115.135433 321 2070ft 18kts
29-Sep-18 17:25 36.073157 -115.084404 262 2772ft 130kts
29-Sep-18 17:26 36.074058 -115.116862 255 2386ft 99kts

Navigation Log

Ident Type
Flight plan parsing failed, navigation log unavailable